sensor_id;sensor_type;location;lat;lon;timestamp;pressure;altitude;pressure_sealevel;temperature;humidity
37170;BME280;23062;13.952;100.608;2023-08-07T00:03:18;1008.20;;;31.03;66.56
37170;BME280;23062;13.952;100.608;2023-08-07T00:07:45;1008.22;;;30.98;66.67
37170;BME280;23062;13.952;100.608;2023-08-07T00:12:27;1008.20;;;30.97;66.97
37170;BME280;23062;13.952;100.608;2023-08-07T00:16:47;1008.25;;;30.98;66.70
37170;BME280;23062;13.952;100.608;2023-08-07T00:21:17;1008.24;;;31.02;66.83
37170;BME280;23062;13.952;100.608;2023-08-07T00:25:53;1008.25;;;31.04;66.76
37170;BME280;23062;13.952;100.608;2023-08-07T00:30:21;1008.28;;;31.06;66.43
37170;BME280;23062;13.952;100.608;2023-08-07T00:34:51;1008.28;;;31.09;66.47
37170;BME280;23062;13.952;100.608;2023-08-07T00:39:18;1008.30;;;31.16;66.13
37170;BME280;23062;13.952;100.608;2023-08-07T00:43:45;1008.33;;;31.18;65.60
37170;BME280;23062;13.952;100.608;2023-08-07T00:48:14;1008.38;;;31.16;66.01
37170;BME280;23062;13.952;100.608;2023-08-07T00:52:41;1008.49;;;31.20;65.38
37170;BME280;23062;13.952;100.608;2023-08-07T00:57:13;1008.54;;;31.26;65.71
37170;BME280;23062;13.952;100.608;2023-08-07T01:01:41;1008.61;;;31.28;65.69
37170;BME280;23062;13.952;100.608;2023-08-07T01:06:08;1008.67;;;31.29;65.85
37170;BME280;23062;13.952;100.608;2023-08-07T01:15:29;1008.71;;;31.36;66.44
37170;BME280;23062;13.952;100.608;2023-08-07T01:19:56;1008.75;;;31.30;66.57
37170;BME280;23062;13.952;100.608;2023-08-07T01:24:22;1008.76;;;31.25;66.56
37170;BME280;23062;13.952;100.608;2023-08-07T01:29:12;1008.79;;;31.24;66.08
37170;BME280;23062;13.952;100.608;2023-08-07T01:33:43;1008.82;;;31.26;65.82
37170;BME280;23062;13.952;100.608;2023-08-07T01:38:12;1008.85;;;31.29;65.67
37170;BME280;23062;13.952;100.608;2023-08-07T01:42:41;1008.92;;;31.27;65.43
37170;BME280;23062;13.952;100.608;2023-08-07T01:47:17;1009.00;;;31.27;64.67
37170;BME280;23062;13.952;100.608;2023-08-07T01:51:42;1009.01;;;31.26;64.23
37170;BME280;23062;13.952;100.608;2023-08-07T01:56:09;1009.06;;;31.28;63.82
37170;BME280;23062;13.952;100.608;2023-08-07T02:00:35;1009.05;;;31.28;63.62
37170;BME280;23062;13.952;100.608;2023-08-07T02:05:04;1009.01;;;31.30;63.34
37170;BME280;23062;13.952;100.608;2023-08-07T02:09:30;1008.95;;;31.28;63.25
37170;BME280;23062;13.952;100.608;2023-08-07T02:13:57;1008.94;;;31.29;63.45
37170;BME280;23062;13.952;100.608;2023-08-07T02:18:30;1008.94;;;31.34;63.35
37170;BME280;23062;13.952;100.608;2023-08-07T02:22:57;1008.88;;;31.33;63.33
37170;BME280;23062;13.952;100.608;2023-08-07T02:27:26;1008.89;;;31.36;63.20
37170;BME280;23062;13.952;100.608;2023-08-07T02:31:52;1008.85;;;31.37;63.05
37170;BME280;23062;13.952;100.608;2023-08-07T02:36:20;1008.90;;;31.37;63.16
37170;BME280;23062;13.952;100.608;2023-08-07T02:40:45;1008.90;;;31.36;63.01
37170;BME280;23062;13.952;100.608;2023-08-07T02:45:18;1008.94;;;31.37;62.83
37170;BME280;23062;13.952;100.608;2023-08-07T02:49:44;1008.89;;;31.44;62.61
37170;BME280;23062;13.952;100.608;2023-08-07T02:54:10;1008.96;;;31.45;62.51
37170;BME280;23062;13.952;100.608;2023-08-07T02:58:36;1008.92;;;31.44;62.59
37170;BME280;23062;13.952;100.608;2023-08-07T03:03:12;1008.86;;;31.47;62.65
37170;BME280;23062;13.952;100.608;2023-08-07T03:07:38;1008.92;;;31.49;62.75
37170;BME280;23062;13.952;100.608;2023-08-07T03:12:05;1008.78;;;31.54;62.70
37170;BME280;23062;13.952;100.608;2023-08-07T03:16:35;1008.77;;;31.58;62.36
37170;BME280;23062;13.952;100.608;2023-08-07T03:21:04;1008.75;;;31.55;62.34
37170;BME280;23062;13.952;100.608;2023-08-07T03:25:35;1008.70;;;31.57;62.41
37170;BME280;23062;13.952;100.608;2023-08-07T03:30:07;1008.77;;;31.59;62.49
37170;BME280;23062;13.952;100.608;2023-08-07T03:34:35;1008.76;;;31.63;62.63
37170;BME280;23062;13.952;100.608;2023-08-07T03:39:01;1008.71;;;31.63;62.51
37170;BME280;23062;13.952;100.608;2023-08-07T03:43:31;1008.78;;;31.67;62.10
37170;BME280;23062;13.952;100.608;2023-08-07T03:47:57;1008.76;;;31.70;62.16
37170;BME280;23062;13.952;100.608;2023-08-07T03:52:24;1008.76;;;31.68;62.39
37170;BME280;23062;13.952;100.608;2023-08-07T03:56:50;1008.73;;;31.70;62.02
37170;BME280;23062;13.952;100.608;2023-08-07T04:01:16;1008.70;;;31.76;62.04
37170;BME280;23062;13.952;100.608;2023-08-07T04:05:42;1008.63;;;31.74;62.18
37170;BME280;23062;13.952;100.608;2023-08-07T04:10:23;1008.55;;;31.75;62.22
37170;BME280;23062;13.952;100.608;2023-08-07T04:14:48;1008.50;;;31.78;62.34
37170;BME280;23062;13.952;100.608;2023-08-07T04:19:22;1008.45;;;31.77;62.35
37170;BME280;23062;13.952;100.608;2023-08-07T04:24:00;1008.38;;;31.79;62.18
37170;BME280;23062;13.952;100.608;2023-08-07T04:28:36;1008.36;;;31.82;62.13
37170;BME280;23062;13.952;100.608;2023-08-07T04:38:11;1008.12;;;31.85;62.46
37170;BME280;23062;13.952;100.608;2023-08-07T04:42:38;1008.06;;;31.85;62.19
37170;BME280;23062;13.952;100.608;2023-08-07T04:47:13;1008.06;;;31.86;62.11
37170;BME280;23062;13.952;100.608;2023-08-07T04:51:43;1007.92;;;31.87;61.62
37170;BME280;23062;13.952;100.608;2023-08-07T04:56:09;1007.91;;;31.90;61.46
37170;BME280;23062;13.952;100.608;2023-08-07T05:00:35;1007.88;;;31.88;61.47
37170;BME280;23062;13.952;100.608;2023-08-07T05:05:04;1007.86;;;31.89;61.32
37170;BME280;23062;13.952;100.608;2023-08-07T05:09:34;1007.83;;;31.92;60.90
37170;BME280;23062;13.952;100.608;2023-08-07T05:14:01;1007.79;;;31.94;60.75
37170;BME280;23062;13.952;100.608;2023-08-07T05:18:27;1007.78;;;31.92;60.57
37170;BME280;23062;13.952;100.608;2023-08-07T05:22:57;1007.66;;;31.93;60.52
37170;BME280;23062;13.952;100.608;2023-08-07T05:27:31;1007.55;;;31.90;60.63
37170;BME280;23062;13.952;100.608;2023-08-07T05:31:56;1007.53;;;31.92;60.71
37170;BME280;23062;13.952;100.608;2023-08-07T05:36:35;1007.41;;;31.95;60.88
37170;BME280;23062;13.952;100.608;2023-08-07T05:41:06;1007.26;;;31.92;60.97
37170;BME280;23062;13.952;100.608;2023-08-07T05:45:32;1007.17;;;31.96;61.02
37170;BME280;23062;13.952;100.608;2023-08-07T05:49:59;1007.12;;;31.99;60.99
37170;BME280;23062;13.952;100.608;2023-08-07T05:54:25;1007.18;;;31.98;61.13
37170;BME280;23062;13.952;100.608;2023-08-07T05:58:52;1007.09;;;31.99;60.99
37170;BME280;23062;13.952;100.608;2023-08-07T06:03:18;1007.03;;;32.02;60.91
37170;BME280;23062;13.952;100.608;2023-08-07T06:07:53;1006.95;;;32.00;60.84
37170;BME280;23062;13.952;100.608;2023-08-07T06:12:21;1006.92;;;32.01;60.92
37170;BME280;23062;13.952;100.608;2023-08-07T06:16:46;1006.86;;;32.05;60.96
37170;BME280;23062;13.952;100.608;2023-08-07T06:21:21;1006.76;;;32.07;61.00
37170;BME280;23062;13.952;100.608;2023-08-07T06:25:48;1006.73;;;32.10;60.84
37170;BME280;23062;13.952;100.608;2023-08-07T06:30:23;1006.74;;;32.09;61.07
37170;BME280;23062;13.952;100.608;2023-08-07T06:34:49;1006.69;;;32.12;61.05
37170;BME280;23062;13.952;100.608;2023-08-07T06:43:55;1006.55;;;32.16;61.10
37170;BME280;23062;13.952;100.608;2023-08-07T06:48:24;1006.49;;;32.17;61.17
37170;BME280;23062;13.952;100.608;2023-08-07T06:52:50;1006.46;;;32.20;61.15
37170;BME280;23062;13.952;100.608;2023-08-07T06:57:17;1006.36;;;32.24;61.04
37170;BME280;23062;13.952;100.608;2023-08-07T07:01:52;1006.31;;;32.28;60.60
37170;BME280;23062;13.952;100.608;2023-08-07T07:06:18;1006.22;;;32.27;60.30
37170;BME280;23062;13.952;100.608;2023-08-07T07:10:55;1006.10;;;32.28;60.13
37170;BME280;23062;13.952;100.608;2023-08-07T07:15:27;1005.98;;;32.28;60.01
37170;BME280;23062;13.952;100.608;2023-08-07T07:19:58;1005.98;;;32.28;59.74
37170;BME280;23062;13.952;100.608;2023-08-07T07:24:25;1005.97;;;32.31;59.51
37170;BME280;23062;13.952;100.608;2023-08-07T07:28:53;1005.89;;;32.31;59.78
37170;BME280;23062;13.952;100.608;2023-08-07T07:33:21;1005.81;;;32.36;59.67
37170;BME280;23062;13.952;100.608;2023-08-07T07:37:49;1005.80;;;32.40;59.38
37170;BME280;23062;13.952;100.608;2023-08-07T07:42:24;1005.73;;;32.36;59.47
37170;BME280;23062;13.952;100.608;2023-08-07T07:46:51;1005.74;;;32.40;59.37
37170;BME280;23062;13.952;100.608;2023-08-07T07:51:23;1005.74;;;32.43;59.00
37170;BME280;23062;13.952;100.608;2023-08-07T07:55:51;1005.72;;;32.43;58.83
37170;BME280;23062;13.952;100.608;2023-08-07T08:00:20;1005.69;;;32.39;59.07
37170;BME280;23062;13.952;100.608;2023-08-07T08:04:50;1005.64;;;32.42;58.95
37170;BME280;23062;13.952;100.608;2023-08-07T08:09:17;1005.63;;;32.39;59.16
37170;BME280;23062;13.952;100.608;2023-08-07T08:13:53;1005.55;;;32.39;59.32
37170;BME280;23062;13.952;100.608;2023-08-07T08:18:23;1005.52;;;32.42;59.44
37170;BME280;23062;13.952;100.608;2023-08-07T08:22:51;1005.50;;;32.45;59.41
37170;BME280;23062;13.952;100.608;2023-08-07T08:27:26;1005.48;;;32.42;59.49
37170;BME280;23062;13.952;100.608;2023-08-07T08:31:53;1005.37;;;32.44;59.66
37170;BME280;23062;13.952;100.608;2023-08-07T08:36:25;1005.32;;;32.45;59.65
37170;BME280;23062;13.952;100.608;2023-08-07T08:40:53;1005.36;;;32.44;59.74
37170;BME280;23062;13.952;100.608;2023-08-07T08:45:22;1005.37;;;32.46;59.59
37170;BME280;23062;13.952;100.608;2023-08-07T08:50:07;1005.34;;;32.45;59.59
37170;BME280;23062;13.952;100.608;2023-08-07T08:54:27;1005.38;;;32.43;59.66
37170;BME280;23062;13.952;100.608;2023-08-07T08:58:54;1005.40;;;32.45;59.74
37170;BME280;23062;13.952;100.608;2023-08-07T09:03:25;1005.36;;;32.46;59.42
37170;BME280;23062;13.952;100.608;2023-08-07T09:08:01;1005.42;;;32.47;59.30
37170;BME280;23062;13.952;100.608;2023-08-07T09:12:31;1005.46;;;32.47;59.41
37170;BME280;23062;13.952;100.608;2023-08-07T09:17:05;1005.36;;;32.46;59.05
37170;BME280;23062;13.952;100.608;2023-08-07T09:21:34;1005.43;;;32.46;59.05
37170;BME280;23062;13.952;100.608;2023-08-07T09:26:10;1005.44;;;32.45;59.02
37170;BME280;23062;13.952;100.608;2023-08-07T09:30:38;1005.41;;;32.46;58.86
37170;BME280;23062;13.952;100.608;2023-08-07T09:35:28;1005.45;;;32.46;59.43
37170;BME280;23062;13.952;100.608;2023-08-07T09:39:59;1005.42;;;32.48;59.82
37170;BME280;23062;13.952;100.608;2023-08-07T09:44:34;1005.37;;;32.45;60.11
37170;BME280;23062;13.952;100.608;2023-08-07T09:49:04;1005.45;;;32.44;60.39
37170;BME280;23062;13.952;100.608;2023-08-07T09:53:31;1005.40;;;32.43;60.64
37170;BME280;23062;13.952;100.608;2023-08-07T09:57:58;1005.41;;;32.44;60.69
37170;BME280;23062;13.952;100.608;2023-08-07T10:02:32;1005.48;;;32.48;60.59
37170;BME280;23062;13.952;100.608;2023-08-07T10:07:08;1005.61;;;32.45;60.58
37170;BME280;23062;13.952;100.608;2023-08-07T10:11:45;1005.61;;;32.54;60.41
37170;BME280;23062;13.952;100.608;2023-08-07T10:16:13;1005.62;;;32.58;60.22
37170;BME280;23062;13.952;100.608;2023-08-07T10:20:47;1005.63;;;32.57;60.01
37170;BME280;23062;13.952;100.608;2023-08-07T10:25:31;1005.65;;;32.57;59.82
37170;BME280;23062;13.952;100.608;2023-08-07T10:29:57;1005.74;;;32.62;60.02
37170;BME280;23062;13.952;100.608;2023-08-07T10:34:28;1005.83;;;32.60;60.25
37170;BME280;23062;13.952;100.608;2023-08-07T10:39:05;1005.93;;;32.52;60.86
37170;BME280;23062;13.952;100.608;2023-08-07T10:43:24;1005.92;;;32.41;61.47
37170;BME280;23062;13.952;100.608;2023-08-07T10:48:07;1006.03;;;32.39;61.91
37170;BME280;23062;13.952;100.608;2023-08-07T10:52:34;1006.14;;;32.45;62.43
37170;BME280;23062;13.952;100.608;2023-08-07T10:57:12;1006.20;;;32.45;62.56
37170;BME280;23062;13.952;100.608;2023-08-07T11:01:40;1006.19;;;32.47;62.75
37170;BME280;23062;13.952;100.608;2023-08-07T11:06:09;1006.21;;;32.48;62.77
37170;BME280;23062;13.952;100.608;2023-08-07T11:10:35;1006.26;;;32.45;62.41
37170;BME280;23062;13.952;100.608;2023-08-07T11:15:01;1006.22;;;32.43;62.63
37170;BME280;23062;13.952;100.608;2023-08-07T11:19:30;1006.23;;;32.43;62.81
37170;BME280;23062;13.952;100.608;2023-08-07T11:23:55;1006.30;;;32.44;62.92
37170;BME280;23062;13.952;100.608;2023-08-07T11:28:24;1006.26;;;32.43;63.06
37170;BME280;23062;13.952;100.608;2023-08-07T11:32:50;1006.29;;;32.44;63.29
37170;BME280;23062;13.952;100.608;2023-08-07T11:37:19;1006.29;;;32.44;63.39
37170;BME280;23062;13.952;100.608;2023-08-07T11:41:46;1006.34;;;32.46;63.49
37170;BME280;23062;13.952;100.608;2023-08-07T11:46:23;1006.44;;;32.44;63.74
37170;BME280;23062;13.952;100.608;2023-08-07T11:50:57;1006.45;;;32.42;63.90
37170;BME280;23062;13.952;100.608;2023-08-07T11:55:27;1006.45;;;32.41;64.27
37170;BME280;23062;13.952;100.608;2023-08-07T12:00:03;1006.52;;;32.42;64.29
37170;BME280;23062;13.952;100.608;2023-08-07T12:04:38;1006.51;;;32.39;64.63
37170;BME280;23062;13.952;100.608;2023-08-07T12:09:07;1006.51;;;32.40;64.32
37170;BME280;23062;13.952;100.608;2023-08-07T12:13:49;1006.58;;;32.44;64.41
37170;BME280;23062;13.952;100.608;2023-08-07T12:18:18;1006.55;;;32.42;64.56
37170;BME280;23062;13.952;100.608;2023-08-07T12:22:46;1006.63;;;32.47;64.73
37170;BME280;23062;13.952;100.608;2023-08-07T12:27:13;1006.66;;;32.42;64.76
37170;BME280;23062;13.952;100.608;2023-08-07T12:31:45;1006.72;;;32.38;64.58
37170;BME280;23062;13.952;100.608;2023-08-07T12:36:23;1006.79;;;32.41;64.75
37170;BME280;23062;13.952;100.608;2023-08-07T12:40:59;1006.87;;;32.37;64.97
37170;BME280;23062;13.952;100.608;2023-08-07T12:45:37;1006.96;;;32.40;65.13
37170;BME280;23062;13.952;100.608;2023-08-07T12:50:04;1007.01;;;32.43;65.13
37170;BME280;23062;13.952;100.608;2023-08-07T12:54:36;1007.13;;;32.41;65.04
37170;BME280;23062;13.952;100.608;2023-08-07T12:59:06;1007.21;;;32.45;64.90
37170;BME280;23062;13.952;100.608;2023-08-07T13:03:35;1007.20;;;32.43;65.16
37170;BME280;23062;13.952;100.608;2023-08-07T13:08:12;1007.30;;;32.42;65.19
37170;BME280;23062;13.952;100.608;2023-08-07T13:12:53;1007.31;;;32.43;65.12
37170;BME280;23062;13.952;100.608;2023-08-07T13:17:38;1007.49;;;32.42;65.32
37170;BME280;23062;13.952;100.608;2023-08-07T13:22:15;1007.63;;;32.41;65.33
37170;BME280;23062;13.952;100.608;2023-08-07T13:26:42;1007.66;;;32.41;65.17
37170;BME280;23062;13.952;100.608;2023-08-07T13:31:18;1007.73;;;32.41;65.07
37170;BME280;23062;13.952;100.608;2023-08-07T13:35:55;1007.76;;;32.39;64.98
37170;BME280;23062;13.952;100.608;2023-08-07T13:40:24;1007.77;;;32.37;64.81
37170;BME280;23062;13.952;100.608;2023-08-07T13:44:51;1007.78;;;32.45;64.32
37170;BME280;23062;13.952;100.608;2023-08-07T13:49:24;1007.76;;;32.54;63.46
37170;BME280;23062;13.952;100.608;2023-08-07T13:53:51;1007.81;;;32.57;63.51
37170;BME280;23062;13.952;100.608;2023-08-07T13:58:20;1007.84;;;32.52;63.86
37170;BME280;23062;13.952;100.608;2023-08-07T14:02:49;1007.91;;;32.50;63.99
37170;BME280;23062;13.952;100.608;2023-08-07T14:07:18;1007.91;;;32.49;63.87
37170;BME280;23062;13.952;100.608;2023-08-07T14:11:53;1008.01;;;32.50;63.47
37170;BME280;23062;13.952;100.608;2023-08-07T14:16:32;1008.06;;;32.49;63.58
37170;BME280;23062;13.952;100.608;2023-08-07T14:21:06;1008.02;;;32.46;63.51
37170;BME280;23062;13.952;100.608;2023-08-07T14:25:37;1008.05;;;32.48;63.32
37170;BME280;23062;13.952;100.608;2023-08-07T14:30:11;1008.10;;;32.44;63.28
37170;BME280;23062;13.952;100.608;2023-08-07T14:34:39;1008.09;;;32.42;63.04
37170;BME280;23062;13.952;100.608;2023-08-07T14:39:17;1008.26;;;32.46;62.91
37170;BME280;23062;13.952;100.608;2023-08-07T14:43:44;1008.33;;;32.47;62.75
37170;BME280;23062;13.952;100.608;2023-08-07T14:48:13;1008.38;;;32.43;62.74
37170;BME280;23062;13.952;100.608;2023-08-07T14:52:48;1008.46;;;32.43;62.57
37170;BME280;23062;13.952;100.608;2023-08-07T14:57:34;1008.43;;;32.39;62.26
37170;BME280;23062;13.952;100.608;2023-08-07T15:02:20;1008.44;;;32.38;62.35
37170;BME280;23062;13.952;100.608;2023-08-07T15:06:50;1008.38;;;32.40;61.99
37170;BME280;23062;13.952;100.608;2023-08-07T15:11:17;1008.48;;;32.43;62.07
37170;BME280;23062;13.952;100.608;2023-08-07T15:15:44;1008.56;;;32.40;61.71
37170;BME280;23062;13.952;100.608;2023-08-07T15:25:03;1008.59;;;32.38;61.71
37170;BME280;23062;13.952;100.608;2023-08-07T15:29:37;1008.53;;;32.33;61.71
37170;BME280;23062;13.952;100.608;2023-08-07T15:34:06;1008.52;;;32.37;61.37
37170;BME280;23062;13.952;100.608;2023-08-07T15:38:46;1008.57;;;32.36;61.52
37170;BME280;23062;13.952;100.608;2023-08-07T15:43:23;1008.55;;;32.36;61.54
37170;BME280;23062;13.952;100.608;2023-08-07T15:47:58;1008.55;;;32.36;61.40
37170;BME280;23062;13.952;100.608;2023-08-07T15:52:30;1008.49;;;32.29;61.50
37170;BME280;23062;13.952;100.608;2023-08-07T15:57:00;1008.53;;;32.31;61.05
37170;BME280;23062;13.952;100.608;2023-08-07T16:01:26;1008.47;;;32.33;61.36
37170;BME280;23062;13.952;100.608;2023-08-07T16:05:53;1008.45;;;32.29;61.22
37170;BME280;23062;13.952;100.608;2023-08-07T16:10:20;1008.42;;;32.31;61.18
37170;BME280;23062;13.952;100.608;2023-08-07T16:14:48;1008.41;;;32.29;61.31
37170;BME280;23062;13.952;100.608;2023-08-07T16:19:21;1008.36;;;32.26;61.33
37170;BME280;23062;13.952;100.608;2023-08-07T16:23:55;1008.34;;;32.25;61.18
37170;BME280;23062;13.952;100.608;2023-08-07T16:28:28;1008.36;;;32.25;61.09
37170;BME280;23062;13.952;100.608;2023-08-07T16:33:00;1008.36;;;32.23;61.18
37170;BME280;23062;13.952;100.608;2023-08-07T16:37:31;1008.37;;;32.21;61.22
37170;BME280;23062;13.952;100.608;2023-08-07T16:42:06;1008.34;;;32.23;61.06
37170;BME280;23062;13.952;100.608;2023-08-07T16:46:42;1008.31;;;32.21;60.97
37170;BME280;23062;13.952;100.608;2023-08-07T16:51:17;1008.29;;;32.20;60.99
37170;BME280;23062;13.952;100.608;2023-08-07T16:55:44;1008.21;;;32.24;60.88
37170;BME280;23062;13.952;100.608;2023-08-07T17:00:20;1008.17;;;32.23;60.94
37170;BME280;23062;13.952;100.608;2023-08-07T17:04:55;1008.13;;;32.22;60.75
37170;BME280;23062;13.952;100.608;2023-08-07T17:09:20;1008.10;;;32.19;60.76
37170;BME280;23062;13.952;100.608;2023-08-07T17:13:47;1008.00;;;32.24;60.63
37170;BME280;23062;13.952;100.608;2023-08-07T17:18:16;1007.92;;;32.20;60.79
37170;BME280;23062;13.952;100.608;2023-08-07T17:22:44;1007.82;;;32.25;60.79
37170;BME280;23062;13.952;100.608;2023-08-07T17:27:13;1007.76;;;32.28;60.82
37170;BME280;23062;13.952;100.608;2023-08-07T17:31:48;1007.71;;;32.26;60.60
37170;BME280;23062;13.952;100.608;2023-08-07T17:36:17;1007.71;;;32.25;60.70
37170;BME280;23062;13.952;100.608;2023-08-07T17:40:44;1007.60;;;32.22;60.63
37170;BME280;23062;13.952;100.608;2023-08-07T17:45:11;1007.66;;;32.25;60.77
37170;BME280;23062;13.952;100.608;2023-08-07T17:49:43;1007.62;;;32.24;60.62
37170;BME280;23062;13.952;100.608;2023-08-07T17:54:10;1007.54;;;32.22;60.51
37170;BME280;23062;13.952;100.608;2023-08-07T17:58:37;1007.53;;;32.24;60.58
37170;BME280;23062;13.952;100.608;2023-08-07T18:03:04;1007.54;;;32.14;60.45
37170;BME280;23062;13.952;100.608;2023-08-07T18:07:35;1007.51;;;32.24;60.56
37170;BME280;23062;13.952;100.608;2023-08-07T18:12:07;1007.58;;;32.21;60.43
37170;BME280;23062;13.952;100.608;2023-08-07T18:16:36;1007.50;;;32.17;60.54
37170;BME280;23062;13.952;100.608;2023-08-07T18:21:05;1007.43;;;32.18;60.36
37170;BME280;23062;13.952;100.608;2023-08-07T18:25:32;1007.41;;;32.04;60.34
37170;BME280;23062;13.952;100.608;2023-08-07T18:30:05;1007.40;;;32.19;60.38
37170;BME280;23062;13.952;100.608;2023-08-07T18:34:32;1007.26;;;32.14;60.10
37170;BME280;23062;13.952;100.608;2023-08-07T18:38:58;1007.20;;;32.11;59.74
37170;BME280;23062;13.952;100.608;2023-08-07T18:43:25;1007.18;;;32.18;60.08
37170;BME280;23062;13.952;100.608;2023-08-07T18:47:59;1007.18;;;32.16;60.13
37170;BME280;23062;13.952;100.608;2023-08-07T18:52:31;1007.15;;;32.13;60.02
37170;BME280;23062;13.952;100.608;2023-08-07T18:57:05;1007.08;;;32.09;59.92
37170;BME280;23062;13.952;100.608;2023-08-07T19:01:34;1007.02;;;32.15;60.06
37170;BME280;23062;13.952;100.608;2023-08-07T19:06:03;1007.01;;;32.12;59.91
37170;BME280;23062;13.952;100.608;2023-08-07T19:10:32;1007.00;;;32.13;59.91
37170;BME280;23062;13.952;100.608;2023-08-07T19:15:06;1007.00;;;32.10;59.88
37170;BME280;23062;13.952;100.608;2023-08-07T19:19:42;1006.95;;;32.10;59.91
37170;BME280;23062;13.952;100.608;2023-08-07T19:24:16;1006.88;;;32.07;59.81
37170;BME280;23062;13.952;100.608;2023-08-07T19:28:46;1006.80;;;32.07;59.74
37170;BME280;23062;13.952;100.608;2023-08-07T19:33:14;1006.74;;;32.08;59.82
37170;BME280;23062;13.952;100.608;2023-08-07T19:37:42;1006.63;;;32.03;59.53
37170;BME280;23062;13.952;100.608;2023-08-07T19:42:09;1006.59;;;32.07;59.73
37170;BME280;23062;13.952;100.608;2023-08-07T19:46:43;1006.56;;;32.05;59.69
37170;BME280;23062;13.952;100.608;2023-08-07T19:51:16;1006.52;;;32.04;59.77
37170;BME280;23062;13.952;100.608;2023-08-07T19:55:47;1006.52;;;32.02;59.69
37170;BME280;23062;13.952;100.608;2023-08-07T20:00:17;1006.54;;;32.03;59.58
37170;BME280;23062;13.952;100.608;2023-08-07T20:04:43;1006.61;;;32.05;59.61
37170;BME280;23062;13.952;100.608;2023-08-07T20:09:11;1006.59;;;32.01;59.72
37170;BME280;23062;13.952;100.608;2023-08-07T20:13:37;1006.58;;;32.03;59.63
37170;BME280;23062;13.952;100.608;2023-08-07T20:18:09;1006.65;;;32.00;59.75
37170;BME280;23062;13.952;100.608;2023-08-07T20:22:41;1006.63;;;32.02;59.72
37170;BME280;23062;13.952;100.608;2023-08-07T20:27:16;1006.61;;;31.99;59.79
37170;BME280;23062;13.952;100.608;2023-08-07T20:31:51;1006.56;;;31.98;59.84
37170;BME280;23062;13.952;100.608;2023-08-07T20:36:18;1006.61;;;31.97;59.78
37170;BME280;23062;13.952;100.608;2023-08-07T20:40:45;1006.64;;;31.99;59.79
37170;BME280;23062;13.952;100.608;2023-08-07T20:45:26;1006.59;;;31.98;59.84
37170;BME280;23062;13.952;100.608;2023-08-07T20:49:58;1006.58;;;31.95;59.78
37170;BME280;23062;13.952;100.608;2023-08-07T20:54:33;1006.64;;;31.97;59.76
37170;BME280;23062;13.952;100.608;2023-08-07T20:58:58;1006.57;;;31.98;59.73
37170;BME280;23062;13.952;100.608;2023-08-07T21:03:26;1006.49;;;31.96;59.79
37170;BME280;23062;13.952;100.608;2023-08-07T21:07:57;1006.55;;;31.94;59.76
37170;BME280;23062;13.952;100.608;2023-08-07T21:12:24;1006.62;;;31.96;59.75
37170;BME280;23062;13.952;100.608;2023-08-07T21:16:52;1006.64;;;31.95;59.78
37170;BME280;23062;13.952;100.608;2023-08-07T21:21:36;1006.59;;;31.84;59.74
37170;BME280;23062;13.952;100.608;2023-08-07T21:26:01;1006.62;;;31.76;60.06
37170;BME280;23062;13.952;100.608;2023-08-07T21:30:29;1006.62;;;31.80;60.08
37170;BME280;23062;13.952;100.608;2023-08-07T21:34:56;1006.67;;;31.71;60.69
37170;BME280;23062;13.952;100.608;2023-08-07T21:39:30;1006.65;;;31.72;61.07
37170;BME280;23062;13.952;100.608;2023-08-07T21:43:57;1006.66;;;31.63;61.28
37170;BME280;23062;13.952;100.608;2023-08-07T21:48:32;1006.71;;;31.62;61.77
37170;BME280;23062;13.952;100.608;2023-08-07T21:52:58;1006.74;;;31.60;61.93
37170;BME280;23062;13.952;100.608;2023-08-07T21:57:25;1006.71;;;31.62;62.09
37170;BME280;23062;13.952;100.608;2023-08-07T22:01:52;1006.81;;;31.68;61.93
37170;BME280;23062;13.952;100.608;2023-08-07T22:06:18;1006.84;;;31.57;62.41
37170;BME280;23062;13.952;100.608;2023-08-07T22:10:43;1006.93;;;31.19;64.03
37170;BME280;23062;13.952;100.608;2023-08-07T22:15:13;1007.04;;;31.09;64.75
37170;BME280;23062;13.952;100.608;2023-08-07T22:19:41;1007.06;;;31.05;65.11
37170;BME280;23062;13.952;100.608;2023-08-07T22:24:10;1007.18;;;31.05;65.10
37170;BME280;23062;13.952;100.608;2023-08-07T22:28:38;1007.11;;;31.13;65.07
37170;BME280;23062;13.952;100.608;2023-08-07T22:33:07;1007.23;;;31.08;65.05
37170;BME280;23062;13.952;100.608;2023-08-07T22:37:42;1007.26;;;31.22;64.65
37170;BME280;23062;13.952;100.608;2023-08-07T22:42:08;1007.32;;;31.27;64.67
37170;BME280;23062;13.952;100.608;2023-08-07T22:46:35;1007.35;;;31.32;64.46
37170;BME280;23062;13.952;100.608;2023-08-07T22:51:01;1007.39;;;31.32;64.55
37170;BME280;23062;13.952;100.608;2023-08-07T22:55:36;1007.48;;;31.37;64.51
37170;BME280;23062;13.952;100.608;2023-08-07T23:00:22;1007.43;;;31.47;63.82
37170;BME280;23062;13.952;100.608;2023-08-07T23:04:51;1007.59;;;31.54;63.75
37170;BME280;23062;13.952;100.608;2023-08-07T23:09:17;1007.67;;;31.55;63.93
37170;BME280;23062;13.952;100.608;2023-08-07T23:13:48;1007.81;;;31.54;64.05
37170;BME280;23062;13.952;100.608;2023-08-07T23:18:15;1007.78;;;31.52;64.31
37170;BME280;23062;13.952;100.608;2023-08-07T23:22:47;1007.80;;;31.52;64.02
37170;BME280;23062;13.952;100.608;2023-08-07T23:27:14;1007.85;;;31.52;63.65
37170;BME280;23062;13.952;100.608;2023-08-07T23:31:43;1007.94;;;31.54;63.99
37170;BME280;23062;13.952;100.608;2023-08-07T23:36:10;1007.98;;;31.54;64.30
37170;BME280;23062;13.952;100.608;2023-08-07T23:40:40;1007.93;;;31.56;64.18
37170;BME280;23062;13.952;100.608;2023-08-07T23:45:12;1008.08;;;31.58;64.19
37170;BME280;23062;13.952;100.608;2023-08-07T23:49:40;1008.14;;;31.58;64.24
37170;BME280;23062;13.952;100.608;2023-08-07T23:54:06;1008.21;;;31.58;63.79